sensor_id;sensor_type;location;lat;lon;timestamp;P1;durP1;ratioP1;P2;durP2;ratioP2
79706;SDS011;69200;53.612;-2.416;2023-05-09T00:01:52;7.97;;;3.00;;
79706;SDS011;69200;53.612;-2.416;2023-05-09T00:04:18;7.80;;;2.42;;
79706;SDS011;69200;53.612;-2.416;2023-05-09T00:06:44;7.25;;;2.67;;
79706;SDS011;69200;53.612;-2.416;2023-05-09T00:09:09;9.00;;;3.10;;
79706;SDS011;69200;53.612;-2.416;2023-05-09T00:11:35;12.25;;;3.67;;
79706;SDS011;69200;53.612;-2.416;2023-05-09T00:14:00;11.30;;;3.35;;
79706;SDS011;69200;53.612;-2.416;2023-05-09T00:16:27;11.23;;;3.60;;
79706;SDS011;69200;53.612;-2.416;2023-05-09T00:18:52;11.32;;;3.22;;
79706;SDS011;69200;53.612;-2.416;2023-05-09T00:21:18;10.18;;;3.70;;
79706;SDS011;69200;53.612;-2.416;2023-05-09T00:23:43;11.50;;;3.72;;
79706;SDS011;69200;53.612;-2.416;2023-05-09T00:26:09;9.32;;;3.78;;
79706;SDS011;69200;53.612;-2.416;2023-05-09T00:28:34;11.75;;;3.95;;
79706;SDS011;69200;53.612;-2.416;2023-05-09T00:31:00;9.70;;;3.63;;
79706;SDS011;69200;53.612;-2.416;2023-05-09T00:33:25;9.23;;;3.53;;
79706;SDS011;69200;53.612;-2.416;2023-05-09T00:35:52;14.15;;;4.20;;
79706;SDS011;69200;53.612;-2.416;2023-05-09T00:38:18;14.82;;;5.35;;
79706;SDS011;69200;53.612;-2.416;2023-05-09T00:40:43;9.35;;;4.07;;
79706;SDS011;69200;53.612;-2.416;2023-05-09T00:43:08;7.40;;;3.25;;
79706;SDS011;69200;53.612;-2.416;2023-05-09T00:45:34;10.32;;;4.00;;
79706;SDS011;69200;53.612;-2.416;2023-05-09T00:47:59;8.13;;;3.72;;
79706;SDS011;69200;53.612;-2.416;2023-05-09T00:50:25;8.93;;;3.78;;
79706;SDS011;69200;53.612;-2.416;2023-05-09T00:52:50;9.00;;;4.20;;
79706;SDS011;69200;53.612;-2.416;2023-05-09T00:55:16;9.65;;;4.20;;
79706;SDS011;69200;53.612;-2.416;2023-05-09T00:57:42;9.65;;;3.83;;
79706;SDS011;69200;53.612;-2.416;2023-05-09T01:00:08;10.60;;;3.30;;
79706;SDS011;69200;53.612;-2.416;2023-05-09T01:02:39;7.25;;;2.92;;
79706;SDS011;69200;53.612;-2.416;2023-05-09T01:05:05;9.23;;;3.25;;
79706;SDS011;69200;53.612;-2.416;2023-05-09T01:07:37;9.30;;;3.80;;
79706;SDS011;69200;53.612;-2.416;2023-05-09T01:10:15;9.93;;;3.50;;
79706;SDS011;69200;53.612;-2.416;2023-05-09T01:13:03;9.68;;;3.53;;
79706;SDS011;69200;53.612;-2.416;2023-05-09T01:15:45;8.20;;;3.35;;
79706;SDS011;69200;53.612;-2.416;2023-05-09T01:21:04;11.30;;;4.00;;
79706;SDS011;69200;53.612;-2.416;2023-05-09T01:26:01;8.90;;;3.40;;
79706;SDS011;69200;53.612;-2.416;2023-05-09T01:28:33;10.80;;;3.53;;
79706;SDS011;69200;53.612;-2.416;2023-05-09T01:31:19;12.23;;;3.80;;
79706;SDS011;69200;53.612;-2.416;2023-05-09T01:33:45;10.85;;;3.78;;
79706;SDS011;69200;53.612;-2.416;2023-05-09T01:36:16;9.57;;;3.58;;
79706;SDS011;69200;53.612;-2.416;2023-05-09T01:38:43;10.48;;;3.88;;
79706;SDS011;69200;53.612;-2.416;2023-05-09T01:41:11;11.18;;;3.50;;
79706;SDS011;69200;53.612;-2.416;2023-05-09T01:43:39;12.63;;;4.20;;
79706;SDS011;69200;53.612;-2.416;2023-05-09T01:46:06;11.73;;;4.43;;
79706;SDS011;69200;53.612;-2.416;2023-05-09T01:48:34;9.43;;;3.80;;
79706;SDS011;69200;53.612;-2.416;2023-05-09T01:51:01;8.82;;;3.55;;
79706;SDS011;69200;53.612;-2.416;2023-05-09T01:53:27;13.75;;;3.53;;
79706;SDS011;69200;53.612;-2.416;2023-05-09T01:55:54;11.02;;;4.07;;
79706;SDS011;69200;53.612;-2.416;2023-05-09T01:58:21;9.93;;;3.88;;
79706;SDS011;69200;53.612;-2.416;2023-05-09T02:00:49;13.30;;;3.72;;
79706;SDS011;69200;53.612;-2.416;2023-05-09T02:03:15;16.08;;;3.85;;
79706;SDS011;69200;53.612;-2.416;2023-05-09T02:05:41;11.15;;;4.22;;
79706;SDS011;69200;53.612;-2.416;2023-05-09T02:08:07;10.98;;;3.88;;
79706;SDS011;69200;53.612;-2.416;2023-05-09T02:10:33;14.80;;;4.35;;
79706;SDS011;69200;53.612;-2.416;2023-05-09T02:13:00;10.88;;;3.72;;
79706;SDS011;69200;53.612;-2.416;2023-05-09T02:15:25;9.65;;;4.13;;
79706;SDS011;69200;53.612;-2.416;2023-05-09T02:17:51;16.80;;;5.53;;
79706;SDS011;69200;53.612;-2.416;2023-05-09T02:20:17;11.45;;;4.82;;
79706;SDS011;69200;53.612;-2.416;2023-05-09T02:22:42;12.10;;;4.65;;
79706;SDS011;69200;53.612;-2.416;2023-05-09T02:25:09;11.73;;;4.90;;
79706;SDS011;69200;53.612;-2.416;2023-05-09T02:27:39;12.40;;;5.25;;
79706;SDS011;69200;53.612;-2.416;2023-05-09T02:30:07;11.68;;;5.10;;
79706;SDS011;69200;53.612;-2.416;2023-05-09T02:32:35;14.07;;;5.20;;
79706;SDS011;69200;53.612;-2.416;2023-05-09T02:35:02;12.63;;;5.55;;
79706;SDS011;69200;53.612;-2.416;2023-05-09T02:37:30;16.15;;;5.10;;
79706;SDS011;69200;53.612;-2.416;2023-05-09T02:39:56;13.52;;;5.18;;
79706;SDS011;69200;53.612;-2.416;2023-05-09T02:42:23;12.60;;;5.32;;
79706;SDS011;69200;53.612;-2.416;2023-05-09T02:44:50;10.18;;;5.03;;
79706;SDS011;69200;53.612;-2.416;2023-05-09T02:47:16;13.90;;;4.22;;
79706;SDS011;69200;53.612;-2.416;2023-05-09T02:49:41;12.07;;;5.30;;
79706;SDS011;69200;53.612;-2.416;2023-05-09T02:52:07;14.10;;;4.50;;
79706;SDS011;69200;53.612;-2.416;2023-05-09T02:54:32;11.23;;;4.78;;
79706;SDS011;69200;53.612;-2.416;2023-05-09T02:56:58;12.02;;;4.63;;
79706;SDS011;69200;53.612;-2.416;2023-05-09T02:59:24;13.23;;;3.78;;
79706;SDS011;69200;53.612;-2.416;2023-05-09T03:01:50;12.63;;;4.10;;
79706;SDS011;69200;53.612;-2.416;2023-05-09T03:04:15;9.90;;;3.90;;
79706;SDS011;69200;53.612;-2.416;2023-05-09T03:06:41;10.98;;;4.13;;
79706;SDS011;69200;53.612;-2.416;2023-05-09T03:09:07;12.15;;;4.10;;
79706;SDS011;69200;53.612;-2.416;2023-05-09T03:11:33;10.60;;;4.13;;
79706;SDS011;69200;53.612;-2.416;2023-05-09T03:14:00;14.20;;;4.03;;
79706;SDS011;69200;53.612;-2.416;2023-05-09T03:16:26;9.38;;;3.90;;
79706;SDS011;69200;53.612;-2.416;2023-05-09T03:18:51;9.95;;;3.85;;
79706;SDS011;69200;53.612;-2.416;2023-05-09T03:21:17;11.75;;;3.70;;
79706;SDS011;69200;53.612;-2.416;2023-05-09T03:23:42;14.88;;;4.32;;
79706;SDS011;69200;53.612;-2.416;2023-05-09T03:26:08;9.93;;;3.42;;
79706;SDS011;69200;53.612;-2.416;2023-05-09T03:28:33;11.00;;;4.43;;
79706;SDS011;69200;53.612;-2.416;2023-05-09T03:30:58;11.02;;;4.20;;
79706;SDS011;69200;53.612;-2.416;2023-05-09T03:33:24;9.82;;;3.83;;
79706;SDS011;69200;53.612;-2.416;2023-05-09T03:35:50;11.05;;;3.95;;
79706;SDS011;69200;53.612;-2.416;2023-05-09T03:38:15;10.65;;;3.38;;
79706;SDS011;69200;53.612;-2.416;2023-05-09T03:40:41;11.10;;;3.72;;
79706;SDS011;69200;53.612;-2.416;2023-05-09T03:43:06;13.75;;;4.35;;
79706;SDS011;69200;53.612;-2.416;2023-05-09T03:45:31;10.40;;;3.90;;
79706;SDS011;69200;53.612;-2.416;2023-05-09T03:47:57;12.38;;;4.15;;
79706;SDS011;69200;53.612;-2.416;2023-05-09T03:50:23;8.18;;;3.63;;
79706;SDS011;69200;53.612;-2.416;2023-05-09T03:52:48;11.07;;;4.10;;
79706;SDS011;69200;53.612;-2.416;2023-05-09T03:55:15;11.73;;;4.00;;
79706;SDS011;69200;53.612;-2.416;2023-05-09T03:57:40;11.38;;;3.78;;
79706;SDS011;69200;53.612;-2.416;2023-05-09T04:00:06;9.20;;;3.72;;
79706;SDS011;69200;53.612;-2.416;2023-05-09T04:02:32;10.98;;;3.33;;
79706;SDS011;69200;53.612;-2.416;2023-05-09T04:04:59;8.45;;;3.30;;
79706;SDS011;69200;53.612;-2.416;2023-05-09T04:07:24;9.90;;;3.30;;
79706;SDS011;69200;53.612;-2.416;2023-05-09T04:09:50;12.20;;;3.58;;
79706;SDS011;69200;53.612;-2.416;2023-05-09T04:12:16;12.88;;;3.75;;
79706;SDS011;69200;53.612;-2.416;2023-05-09T04:17:10;10.02;;;3.47;;
79706;SDS011;69200;53.612;-2.416;2023-05-09T04:19:36;9.13;;;3.65;;
79706;SDS011;69200;53.612;-2.416;2023-05-09T04:22:01;11.82;;;3.15;;
79706;SDS011;69200;53.612;-2.416;2023-05-09T04:24:26;10.95;;;3.63;;
79706;SDS011;69200;53.612;-2.416;2023-05-09T04:26:52;14.23;;;3.63;;
79706;SDS011;69200;53.612;-2.416;2023-05-09T04:29:17;15.35;;;3.45;;
79706;SDS011;69200;53.612;-2.416;2023-05-09T04:31:42;9.73;;;3.20;;
79706;SDS011;69200;53.612;-2.416;2023-05-09T04:34:08;7.53;;;2.72;;
79706;SDS011;69200;53.612;-2.416;2023-05-09T04:36:33;12.52;;;3.15;;
79706;SDS011;69200;53.612;-2.416;2023-05-09T04:38:59;10.77;;;3.03;;
79706;SDS011;69200;53.612;-2.416;2023-05-09T04:41:24;13.50;;;3.17;;
79706;SDS011;69200;53.612;-2.416;2023-05-09T04:43:50;8.63;;;3.10;;
79706;SDS011;69200;53.612;-2.416;2023-05-09T04:46:16;9.52;;;3.83;;
79706;SDS011;69200;53.612;-2.416;2023-05-09T04:48:41;10.07;;;3.42;;
79706;SDS011;69200;53.612;-2.416;2023-05-09T04:51:07;8.70;;;3.20;;
79706;SDS011;69200;53.612;-2.416;2023-05-09T04:53:32;9.68;;;2.90;;
79706;SDS011;69200;53.612;-2.416;2023-05-09T04:55:58;10.57;;;3.17;;
79706;SDS011;69200;53.612;-2.416;2023-05-09T04:58:23;14.65;;;3.40;;
79706;SDS011;69200;53.612;-2.416;2023-05-09T05:00:50;12.98;;;3.13;;
79706;SDS011;69200;53.612;-2.416;2023-05-09T05:03:16;9.77;;;3.35;;
79706;SDS011;69200;53.612;-2.416;2023-05-09T05:05:42;8.45;;;2.78;;
79706;SDS011;69200;53.612;-2.416;2023-05-09T05:08:07;11.30;;;3.30;;
79706;SDS011;69200;53.612;-2.416;2023-05-09T05:10:33;10.07;;;3.40;;
79706;SDS011;69200;53.612;-2.416;2023-05-09T05:12:58;15.70;;;3.58;;
79706;SDS011;69200;53.612;-2.416;2023-05-09T05:15:23;9.55;;;3.33;;
79706;SDS011;69200;53.612;-2.416;2023-05-09T05:17:50;17.13;;;3.65;;
79706;SDS011;69200;53.612;-2.416;2023-05-09T05:20:16;11.63;;;3.63;;
79706;SDS011;69200;53.612;-2.416;2023-05-09T05:22:41;12.73;;;4.18;;
79706;SDS011;69200;53.612;-2.416;2023-05-09T05:25:07;13.07;;;3.78;;
79706;SDS011;69200;53.612;-2.416;2023-05-09T05:27:32;14.82;;;3.85;;
79706;SDS011;69200;53.612;-2.416;2023-05-09T05:29:58;11.05;;;3.67;;
79706;SDS011;69200;53.612;-2.416;2023-05-09T05:32:23;14.00;;;3.70;;
79706;SDS011;69200;53.612;-2.416;2023-05-09T05:34:49;11.98;;;3.95;;
79706;SDS011;69200;53.612;-2.416;2023-05-09T05:37:14;17.25;;;4.35;;
79706;SDS011;69200;53.612;-2.416;2023-05-09T05:39:39;12.55;;;3.85;;
79706;SDS011;69200;53.612;-2.416;2023-05-09T05:42:05;10.52;;;3.83;;
79706;SDS011;69200;53.612;-2.416;2023-05-09T05:44:30;13.15;;;3.95;;
79706;SDS011;69200;53.612;-2.416;2023-05-09T05:46:55;13.35;;;3.60;;
79706;SDS011;69200;53.612;-2.416;2023-05-09T05:49:21;12.70;;;3.85;;
79706;SDS011;69200;53.612;-2.416;2023-05-09T05:51:48;16.05;;;4.07;;
79706;SDS011;69200;53.612;-2.416;2023-05-09T05:54:14;12.68;;;3.22;;
79706;SDS011;69200;53.612;-2.416;2023-05-09T05:56:39;12.52;;;3.63;;
79706;SDS011;69200;53.612;-2.416;2023-05-09T05:59:05;11.13;;;3.17;;
79706;SDS011;69200;53.612;-2.416;2023-05-09T06:01:30;11.05;;;3.45;;
79706;SDS011;69200;53.612;-2.416;2023-05-09T06:03:55;12.15;;;3.50;;
79706;SDS011;69200;53.612;-2.416;2023-05-09T06:06:21;11.45;;;3.28;;
79706;SDS011;69200;53.612;-2.416;2023-05-09T06:08:47;11.20;;;2.97;;
79706;SDS011;69200;53.612;-2.416;2023-05-09T06:11:15;20.60;;;4.15;;
79706;SDS011;69200;53.612;-2.416;2023-05-09T06:13:41;11.55;;;3.55;;
79706;SDS011;69200;53.612;-2.416;2023-05-09T06:16:07;9.68;;;3.00;;
79706;SDS011;69200;53.612;-2.416;2023-05-09T06:18:33;10.50;;;2.90;;
79706;SDS011;69200;53.612;-2.416;2023-05-09T06:21:03;14.52;;;3.33;;
79706;SDS011;69200;53.612;-2.416;2023-05-09T06:23:29;11.35;;;2.83;;
79706;SDS011;69200;53.612;-2.416;2023-05-09T06:25:54;11.35;;;2.50;;
79706;SDS011;69200;53.612;-2.416;2023-05-09T06:28:20;11.13;;;2.67;;
79706;SDS011;69200;53.612;-2.416;2023-05-09T06:30:45;9.38;;;3.13;;
79706;SDS011;69200;53.612;-2.416;2023-05-09T06:33:10;10.27;;;2.60;;
79706;SDS011;69200;53.612;-2.416;2023-05-09T06:35:36;9.38;;;2.40;;
79706;SDS011;69200;53.612;-2.416;2023-05-09T06:38:01;9.13;;;2.50;;
79706;SDS011;69200;53.612;-2.416;2023-05-09T06:40:27;8.65;;;2.35;;
79706;SDS011;69200;53.612;-2.416;2023-05-09T06:42:52;11.30;;;2.60;;
79706;SDS011;69200;53.612;-2.416;2023-05-09T06:45:17;14.55;;;2.70;;
79706;SDS011;69200;53.612;-2.416;2023-05-09T06:47:43;9.65;;;2.67;;
79706;SDS011;69200;53.612;-2.416;2023-05-09T06:50:08;10.32;;;2.70;;
79706;SDS011;69200;53.612;-2.416;2023-05-09T06:52:34;12.18;;;3.20;;
79706;SDS011;69200;53.612;-2.416;2023-05-09T06:54:59;14.70;;;2.95;;
79706;SDS011;69200;53.612;-2.416;2023-05-09T06:57:25;11.65;;;2.80;;
79706;SDS011;69200;53.612;-2.416;2023-05-09T06:59:50;10.30;;;2.97;;
79706;SDS011;69200;53.612;-2.416;2023-05-09T07:02:15;12.50;;;3.17;;
79706;SDS011;69200;53.612;-2.416;2023-05-09T07:04:41;13.00;;;3.25;;
79706;SDS011;69200;53.612;-2.416;2023-05-09T07:07:06;10.73;;;2.75;;
79706;SDS011;69200;53.612;-2.416;2023-05-09T07:09:31;14.93;;;3.33;;
79706;SDS011;69200;53.612;-2.416;2023-05-09T07:11:58;11.10;;;2.97;;
79706;SDS011;69200;53.612;-2.416;2023-05-09T07:14:24;15.07;;;3.17;;
79706;SDS011;69200;53.612;-2.416;2023-05-09T07:16:50;15.13;;;3.33;;
79706;SDS011;69200;53.612;-2.416;2023-05-09T07:19:15;12.77;;;2.80;;
79706;SDS011;69200;53.612;-2.416;2023-05-09T07:21:41;12.18;;;3.05;;
79706;SDS011;69200;53.612;-2.416;2023-05-09T07:24:07;13.27;;;2.58;;
79706;SDS011;69200;53.612;-2.416;2023-05-09T07:26:33;15.63;;;3.10;;
79706;SDS011;69200;53.612;-2.416;2023-05-09T07:28:59;7.82;;;2.10;;
79706;SDS011;69200;53.612;-2.416;2023-05-09T07:31:24;15.05;;;2.47;;
79706;SDS011;69200;53.612;-2.416;2023-05-09T07:33:50;9.40;;;2.67;;
79706;SDS011;69200;53.612;-2.416;2023-05-09T07:36:15;11.60;;;2.30;;
79706;SDS011;69200;53.612;-2.416;2023-05-09T07:38:41;12.43;;;3.05;;
79706;SDS011;69200;53.612;-2.416;2023-05-09T07:41:07;14.98;;;3.38;;
79706;SDS011;69200;53.612;-2.416;2023-05-09T07:43:33;9.90;;;2.00;;
79706;SDS011;69200;53.612;-2.416;2023-05-09T07:45:58;13.35;;;2.72;;
79706;SDS011;69200;53.612;-2.416;2023-05-09T07:48:24;11.13;;;2.45;;
79706;SDS011;69200;53.612;-2.416;2023-05-09T07:50:50;10.45;;;2.70;;
79706;SDS011;69200;53.612;-2.416;2023-05-09T07:53:16;15.70;;;3.45;;
79706;SDS011;69200;53.612;-2.416;2023-05-09T07:55:41;13.20;;;2.83;;
79706;SDS011;69200;53.612;-2.416;2023-05-09T07:58:08;14.82;;;3.20;;
79706;SDS011;69200;53.612;-2.416;2023-05-09T08:00:34;14.05;;;2.25;;
79706;SDS011;69200;53.612;-2.416;2023-05-09T08:03:00;12.68;;;2.30;;
79706;SDS011;69200;53.612;-2.416;2023-05-09T08:05:25;20.40;;;2.80;;
79706;SDS011;69200;53.612;-2.416;2023-05-09T08:07:51;9.85;;;2.53;;
79706;SDS011;69200;53.612;-2.416;2023-05-09T08:10:16;5.82;;;2.05;;
79706;SDS011;69200;53.612;-2.416;2023-05-09T08:12:41;12.82;;;2.50;;
79706;SDS011;69200;53.612;-2.416;2023-05-09T08:15:07;12.20;;;2.80;;
79706;SDS011;69200;53.612;-2.416;2023-05-09T08:17:32;9.23;;;2.50;;
79706;SDS011;69200;53.612;-2.416;2023-05-09T08:19:58;13.80;;;2.60;;
79706;SDS011;69200;53.612;-2.416;2023-05-09T08:22:23;9.43;;;1.85;;
79706;SDS011;69200;53.612;-2.416;2023-05-09T08:24:49;9.75;;;2.13;;
79706;SDS011;69200;53.612;-2.416;2023-05-09T08:27:14;11.85;;;2.38;;
79706;SDS011;69200;53.612;-2.416;2023-05-09T08:29:40;7.82;;;2.05;;
79706;SDS011;69200;53.612;-2.416;2023-05-09T08:32:06;12.88;;;2.25;;
79706;SDS011;69200;53.612;-2.416;2023-05-09T08:34:31;9.25;;;1.80;;
79706;SDS011;69200;53.612;-2.416;2023-05-09T08:36:59;8.65;;;2.00;;
79706;SDS011;69200;53.612;-2.416;2023-05-09T08:39:25;9.73;;;2.20;;
79706;SDS011;69200;53.612;-2.416;2023-05-09T08:41:50;8.35;;;1.85;;
79706;SDS011;69200;53.612;-2.416;2023-05-09T08:44:20;11.50;;;2.25;;
79706;SDS011;69200;53.612;-2.416;2023-05-09T08:46:47;16.42;;;2.67;;
79706;SDS011;69200;53.612;-2.416;2023-05-09T08:49:15;9.07;;;1.98;;
79706;SDS011;69200;53.612;-2.416;2023-05-09T08:51:41;9.70;;;1.90;;
79706;SDS011;69200;53.612;-2.416;2023-05-09T08:54:08;15.63;;;2.22;;
79706;SDS011;69200;53.612;-2.416;2023-05-09T08:56:34;12.75;;;2.25;;
79706;SDS011;69200;53.612;-2.416;2023-05-09T08:59:00;11.60;;;2.00;;
79706;SDS011;69200;53.612;-2.416;2023-05-09T09:01:25;10.90;;;2.65;;
79706;SDS011;69200;53.612;-2.416;2023-05-09T09:03:51;10.30;;;1.98;;
79706;SDS011;69200;53.612;-2.416;2023-05-09T09:06:17;12.82;;;2.42;;
79706;SDS011;69200;53.612;-2.416;2023-05-09T09:08:45;11.98;;;2.30;;
79706;SDS011;69200;53.612;-2.416;2023-05-09T09:11:12;15.55;;;2.13;;
79706;SDS011;69200;53.612;-2.416;2023-05-09T09:13:40;8.10;;;2.05;;
79706;SDS011;69200;53.612;-2.416;2023-05-09T09:16:08;9.70;;;2.00;;
79706;SDS011;69200;53.612;-2.416;2023-05-09T09:18:38;9.85;;;1.92;;
79706;SDS011;69200;53.612;-2.416;2023-05-09T09:21:08;10.57;;;2.00;;
79706;SDS011;69200;53.612;-2.416;2023-05-09T09:23:36;6.63;;;1.50;;
79706;SDS011;69200;53.612;-2.416;2023-05-09T09:26:04;13.00;;;2.38;;
79706;SDS011;69200;53.612;-2.416;2023-05-09T09:28:30;12.23;;;2.28;;
79706;SDS011;69200;53.612;-2.416;2023-05-09T09:30:55;12.07;;;1.98;;
79706;SDS011;69200;53.612;-2.416;2023-05-09T09:33:21;11.57;;;2.03;;
79706;SDS011;69200;53.612;-2.416;2023-05-09T09:35:52;9.02;;;1.98;;
79706;SDS011;69200;53.612;-2.416;2023-05-09T09:38:19;13.13;;;2.40;;
79706;SDS011;69200;53.612;-2.416;2023-05-09T09:40:55;13.70;;;2.47;;
79706;SDS011;69200;53.612;-2.416;2023-05-09T09:43:29;16.63;;;3.58;;
79706;SDS011;69200;53.612;-2.416;2023-05-09T09:45:56;12.02;;;1.80;;
79706;SDS011;69200;53.612;-2.416;2023-05-09T09:48:24;11.75;;;2.90;;
79706;SDS011;69200;53.612;-2.416;2023-05-09T09:50:52;7.32;;;2.10;;
79706;SDS011;69200;53.612;-2.416;2023-05-09T09:53:19;14.10;;;2.75;;
79706;SDS011;69200;53.612;-2.416;2023-05-09T09:55:50;12.55;;;2.97;;
79706;SDS011;69200;53.612;-2.416;2023-05-09T09:58:17;12.52;;;2.08;;
79706;SDS011;69200;53.612;-2.416;2023-05-09T10:00:45;13.00;;;2.38;;
79706;SDS011;69200;53.612;-2.416;2023-05-09T10:03:14;9.02;;;1.83;;
79706;SDS011;69200;53.612;-2.416;2023-05-09T10:05:43;9.55;;;2.00;;
79706;SDS011;69200;53.612;-2.416;2023-05-09T10:08:08;13.63;;;1.92;;
79706;SDS011;69200;53.612;-2.416;2023-05-09T10:10:35;16.75;;;2.15;;
79706;SDS011;69200;53.612;-2.416;2023-05-09T10:13:03;11.95;;;3.17;;
79706;SDS011;69200;53.612;-2.416;2023-05-09T10:15:34;11.45;;;2.10;;
79706;SDS011;69200;53.612;-2.416;2023-05-09T10:18:03;13.13;;;2.08;;
79706;SDS011;69200;53.612;-2.416;2023-05-09T10:20:32;7.72;;;2.13;;
79706;SDS011;69200;53.612;-2.416;2023-05-09T10:23:00;11.90;;;2.03;;
79706;SDS011;69200;53.612;-2.416;2023-05-09T10:25:31;11.52;;;2.10;;
79706;SDS011;69200;53.612;-2.416;2023-05-09T10:28:03;14.05;;;2.00;;
79706;SDS011;69200;53.612;-2.416;2023-05-09T10:30:47;12.90;;;2.20;;
79706;SDS011;69200;53.612;-2.416;2023-05-09T10:33:19;13.25;;;2.47;;
79706;SDS011;69200;53.612;-2.416;2023-05-09T10:35:55;11.07;;;2.35;;
79706;SDS011;69200;53.612;-2.416;2023-05-09T10:38:23;22.98;;;3.08;;
79706;SDS011;69200;53.612;-2.416;2023-05-09T10:40:49;15.65;;;3.25;;
79706;SDS011;69200;53.612;-2.416;2023-05-09T10:43:15;17.40;;;3.17;;
79706;SDS011;69200;53.612;-2.416;2023-05-09T10:45:41;15.00;;;3.30;;
79706;SDS011;69200;53.612;-2.416;2023-05-09T10:48:07;18.83;;;3.97;;
79706;SDS011;69200;53.612;-2.416;2023-05-09T10:50:33;13.25;;;3.25;;
79706;SDS011;69200;53.612;-2.416;2023-05-09T10:58:21;11.38;;;2.40;;
79706;SDS011;69200;53.612;-2.416;2023-05-09T11:00:56;9.88;;;2.08;;
79706;SDS011;69200;53.612;-2.416;2023-05-09T11:03:24;11.43;;;2.17;;
79706;SDS011;69200;53.612;-2.416;2023-05-09T11:05:51;9.15;;;2.15;;
79706;SDS011;69200;53.612;-2.416;2023-05-09T11:08:22;13.52;;;3.13;;
79706;SDS011;69200;53.612;-2.416;2023-05-09T11:10:53;9.45;;;2.40;;
79706;SDS011;69200;53.612;-2.416;2023-05-09T11:13:20;13.98;;;2.72;;
79706;SDS011;69200;53.612;-2.416;2023-05-09T11:18:28;11.00;;;2.45;;
79706;SDS011;69200;53.612;-2.416;2023-05-09T11:20:54;12.57;;;2.38;;
79706;SDS011;69200;53.612;-2.416;2023-05-09T11:23:29;10.68;;;2.30;;
79706;SDS011;69200;53.612;-2.416;2023-05-09T11:26:05;11.60;;;2.30;;
79706;SDS011;69200;53.612;-2.416;2023-05-09T11:31:10;11.50;;;2.33;;
79706;SDS011;69200;53.612;-2.416;2023-05-09T11:33:38;13.07;;;2.63;;
79706;SDS011;69200;53.612;-2.416;2023-05-09T11:36:21;12.05;;;2.05;;
79706;SDS011;69200;53.612;-2.416;2023-05-09T11:39:00;10.23;;;2.40;;
79706;SDS011;69200;53.612;-2.416;2023-05-09T11:41:41;12.07;;;2.67;;
79706;SDS011;69200;53.612;-2.416;2023-05-09T11:44:11;12.32;;;2.60;;
79706;SDS011;69200;53.612;-2.416;2023-05-09T11:46:38;14.82;;;2.85;;
79706;SDS011;69200;53.612;-2.416;2023-05-09T11:49:05;13.70;;;2.60;;
79706;SDS011;69200;53.612;-2.416;2023-05-09T11:51:31;10.82;;;1.85;;
79706;SDS011;69200;53.612;-2.416;2023-05-09T11:54:01;12.00;;;2.28;;
79706;SDS011;69200;53.612;-2.416;2023-05-09T11:56:28;7.28;;;1.90;;
79706;SDS011;69200;53.612;-2.416;2023-05-09T11:58:54;12.93;;;1.75;;
79706;SDS011;69200;53.612;-2.416;2023-05-09T12:01:20;8.20;;;2.60;;
79706;SDS011;69200;53.612;-2.416;2023-05-09T12:03:47;10.02;;;2.03;;
79706;SDS011;69200;53.612;-2.416;2023-05-09T12:06:22;9.77;;;1.95;;
79706;SDS011;69200;53.612;-2.416;2023-05-09T12:08:48;7.45;;;2.03;;
79706;SDS011;69200;53.612;-2.416;2023-05-09T12:11:14;9.85;;;2.40;;
79706;SDS011;69200;53.612;-2.416;2023-05-09T12:13:46;13.02;;;3.15;;
79706;SDS011;69200;53.612;-2.416;2023-05-09T12:16:14;14.43;;;2.72;;
79706;SDS011;69200;53.612;-2.416;2023-05-09T12:21:16;9.35;;;2.00;;
79706;SDS011;69200;53.612;-2.416;2023-05-09T12:23:41;10.23;;;2.10;;
79706;SDS011;69200;53.612;-2.416;2023-05-09T12:26:07;11.23;;;1.90;;
79706;SDS011;69200;53.612;-2.416;2023-05-09T12:28:33;11.50;;;2.13;;
79706;SDS011;69200;53.612;-2.416;2023-05-09T12:30:59;10.48;;;2.42;;
79706;SDS011;69200;53.612;-2.416;2023-05-09T12:33:25;9.15;;;1.88;;
79706;SDS011;69200;53.612;-2.416;2023-05-09T12:38:31;11.43;;;2.08;;
79706;SDS011;69200;53.612;-2.416;2023-05-09T12:41:03;10.25;;;1.80;;
79706;SDS011;69200;53.612;-2.416;2023-05-09T12:43:34;8.82;;;2.00;;
79706;SDS011;69200;53.612;-2.416;2023-05-09T12:46:02;8.77;;;2.20;;
79706;SDS011;69200;53.612;-2.416;2023-05-09T12:48:29;7.88;;;2.20;;
79706;SDS011;69200;53.612;-2.416;2023-05-09T12:51:05;9.73;;;1.80;;
79706;SDS011;69200;53.612;-2.416;2023-05-09T12:53:34;10.88;;;2.10;;
79706;SDS011;69200;53.612;-2.416;2023-05-09T12:56:03;9.32;;;1.98;;
79706;SDS011;69200;53.612;-2.416;2023-05-09T12:58:30;8.20;;;1.80;;
79706;SDS011;69200;53.612;-2.416;2023-05-09T13:00:56;9.30;;;2.25;;
79706;SDS011;69200;53.612;-2.416;2023-05-09T13:03:26;12.68;;;2.35;;
79706;SDS011;69200;53.612;-2.416;2023-05-09T13:05:58;14.02;;;2.33;;
79706;SDS011;69200;53.612;-2.416;2023-05-09T13:08:25;11.70;;;2.50;;
79706;SDS011;69200;53.612;-2.416;2023-05-09T13:10:51;6.68;;;1.73;;
79706;SDS011;69200;53.612;-2.416;2023-05-09T13:13:17;9.75;;;2.05;;
79706;SDS011;69200;53.612;-2.416;2023-05-09T13:15:43;6.85;;;1.73;;
79706;SDS011;69200;53.612;-2.416;2023-05-09T13:18:10;11.27;;;2.30;;
79706;SDS011;69200;53.612;-2.416;2023-05-09T13:20:36;9.45;;;1.88;;
79706;SDS011;69200;53.612;-2.416;2023-05-09T13:23:01;12.25;;;2.58;;
79706;SDS011;69200;53.612;-2.416;2023-05-09T13:25:27;7.13;;;2.08;;
79706;SDS011;69200;53.612;-2.416;2023-05-09T13:27:52;7.85;;;2.00;;
79706;SDS011;69200;53.612;-2.416;2023-05-09T13:30:18;6.60;;;1.90;;
79706;SDS011;69200;53.612;-2.416;2023-05-09T13:32:44;8.52;;;2.03;;
79706;SDS011;69200;53.612;-2.416;2023-05-09T13:35:11;7.50;;;1.67;;
79706;SDS011;69200;53.612;-2.416;2023-05-09T13:37:37;10.30;;;2.13;;
79706;SDS011;69200;53.612;-2.416;2023-05-09T13:40:02;12.02;;;2.25;;
79706;SDS011;69200;53.612;-2.416;2023-05-09T13:42:28;9.60;;;2.05;;
79706;SDS011;69200;53.612;-2.416;2023-05-09T13:44:53;6.30;;;1.90;;
79706;SDS011;69200;53.612;-2.416;2023-05-09T13:47:19;9.77;;;2.20;;
79706;SDS011;69200;53.612;-2.416;2023-05-09T13:49:45;7.53;;;2.25;;
79706;SDS011;69200;53.612;-2.416;2023-05-09T13:52:10;9.75;;;2.28;;
79706;SDS011;69200;53.612;-2.416;2023-05-09T13:54:36;7.82;;;1.88;;
79706;SDS011;69200;53.612;-2.416;2023-05-09T13:57:01;8.50;;;2.05;;
79706;SDS011;69200;53.612;-2.416;2023-05-09T13:59:27;7.05;;;2.00;;
79706;SDS011;69200;53.612;-2.416;2023-05-09T14:01:53;10.27;;;2.42;;
79706;SDS011;69200;53.612;-2.416;2023-05-09T14:04:21;9.45;;;2.15;;
79706;SDS011;69200;53.612;-2.416;2023-05-09T14:06:46;8.95;;;2.30;;
79706;SDS011;69200;53.612;-2.416;2023-05-09T14:09:12;10.20;;;2.60;;
79706;SDS011;69200;53.612;-2.416;2023-05-09T14:11:39;9.98;;;2.50;;
79706;SDS011;69200;53.612;-2.416;2023-05-09T14:14:05;7.32;;;2.13;;
79706;SDS011;69200;53.612;-2.416;2023-05-09T14:16:31;9.20;;;2.10;;
79706;SDS011;69200;53.612;-2.416;2023-05-09T14:18:56;10.98;;;2.53;;
79706;SDS011;69200;53.612;-2.416;2023-05-09T14:21:21;5.03;;;1.95;;
79706;SDS011;69200;53.612;-2.416;2023-05-09T14:23:47;5.80;;;1.52;;
79706;SDS011;69200;53.612;-2.416;2023-05-09T14:26:13;12.77;;;2.55;;
79706;SDS011;69200;53.612;-2.416;2023-05-09T14:28:39;14.02;;;2.70;;
79706;SDS011;69200;53.612;-2.416;2023-05-09T14:31:04;6.30;;;2.33;;
79706;SDS011;69200;53.612;-2.416;2023-05-09T14:33:31;7.00;;;2.10;;
79706;SDS011;69200;53.612;-2.416;2023-05-09T14:35:57;10.00;;;2.35;;
79706;SDS011;69200;53.612;-2.416;2023-05-09T14:38:22;10.57;;;2.60;;
79706;SDS011;69200;53.612;-2.416;2023-05-09T14:40:47;10.38;;;2.33;;
79706;SDS011;69200;53.612;-2.416;2023-05-09T14:43:13;10.05;;;2.20;;
79706;SDS011;69200;53.612;-2.416;2023-05-09T14:45:39;10.68;;;1.80;;
79706;SDS011;69200;53.612;-2.416;2023-05-09T14:48:04;10.32;;;2.20;;